Weather reports worldwide

Advertisment
Huercal Overa, Spain (8428): temperature & dewpoint: 20.09.2018 17:00:00 - 26.09.2018 17:00:00 (CEST)Huercal Overa, Spain (8428): wind speed & gusts: 20.09.2018 17:00:00 - 26.09.2018 17:00:00 (CEST)Huercal Overa, Spain (8428): wind direction: 20.09.2018 17:00:00 - 26.09.2018 17:00:00 (CEST)Huercal Overa, Spain (8428): reduced air pressure: 20.09.2018 17:00:00 - 26.09.2018 17:00:00 (CEST)Huercal Overa, Spain (8428): precipitation: 20.09.2018 17:00:00 - 26.09.2018 17:00:00 (CEST)
Date & Time tt [°C] td [°C] ff [km/h] ff [kn] fx [km/h] fx [kn] dd ppp [hPa] rr [mm]
26.09.2018 17:00:00 - - - - - - - - -
26.09.2018 16:00:00 27,6 11,2 16 8 33 18 E 1023,4 0,0
26.09.2018 15:00:00 28,2 10,9 14 7 36 20 ESE 1024,0 0,0
26.09.2018 14:00:00 26,9 11,0 13 7 37 20 E 1024,6 -
26.09.2018 13:00:00 26,4 10,2 11 6 39 21 E 1025,2 0,0
26.09.2018 12:00:00 25,0 11,2 11 6 31 17 E 1025,6 0,0
26.09.2018 11:00:00 25,5 12,0 8 4 20 11 E 1025,4 0,0
26.09.2018 10:00:00 23,7 13,6 6 3 16 8 E 1025,6 0,0
26.09.2018 09:00:00 21,9 15,5 3 2 10 5 E 1025,6 0,0
26.09.2018 08:00:00 20,7 16,7 4 2 16 9 ENE 1025,5 -
26.09.2018 07:00:00 21,0 17,2 4 2 13 7 ESE 1024,6 0,0
26.09.2018 06:00:00 21,2 17,2 4 2 12 7 E 1024,3 0,0
26.09.2018 05:00:00 21,9 16,6 4 2 11 6 ENE 1024,1 0,0
26.09.2018 04:00:00 22,0 16,3 5 3 12 7 ESE 1024,2 0,0
26.09.2018 03:00:00 22,3 16,8 5 3 11 6 ESE 1024,5 0,0
26.09.2018 02:00:00 22,5 17,0 3 1 10 5 E 1024,4 -
26.09.2018 01:00:00 22,2 17,4 4 2 11 6 ESE 1024,5 0,0
26.09.2018 00:00:00 22,6 17,9 4 2 16 9 SE 1023,9 0,0
25.09.2018 23:00:00 22,7 18,5 4 2 14 8 SE 1023,5 0,0
25.09.2018 22:00:00 22,9 18,8 6 3 14 7 ESE 1022,9 0,0
25.09.2018 21:00:00 23,3 18,2 5 3 13 7 ESE 1022,1 0,0
25.09.2018 20:00:00 - - - - - - - - -
25.09.2018 19:00:00 24,8 16,7 9 5 19 11 ESE 1020,6 0,0
25.09.2018 18:00:00 25,5 16,6 10 5 18 10 ESE 1020,1 0,0
25.09.2018 17:00:00 26,4 16,6 4 2 18 10 ESE 1019,9 0,0
25.09.2018 16:00:00 26,9 16,5 8 5 23 13 ESE 1019,9 0,0
25.09.2018 15:00:00 26,3 16,0 8 5 19 10 ESE 1020,7 0,0
25.09.2018 14:00:00 29,4 14,4 3 2 16 9 SE 1020,9 -
25.09.2018 13:00:00 27,4 14,7 8 4 21 12 ESE 1021,6 0,0
25.09.2018 12:00:00 27,4 14,7 4 2 17 9 E 1022,3 0,0
25.09.2018 11:00:00 24,4 14,2 7 4 16 8 ENE 1022,5 0,0
25.09.2018 10:00:00 23,7 14,4 4 2 11 6 ESE 1022,5 0,0
25.09.2018 09:00:00 20,8 11,1 3 1 10 6 WNW 1022,0 0,0
25.09.2018 08:00:00 19,5 10,5 2 1 9 5 WNW 1022,0 -
25.09.2018 07:00:00 19,9 12,6 3 1 9 5 NNW 1021,4 0,0
25.09.2018 06:00:00 20,8 15,5 1 1 11 6 ESE 1020,8 0,0
25.09.2018 05:00:00 21,2 16,1 7 4 14 7 E 1020,7 0,0
25.09.2018 04:00:00 20,7 13,9 3 1 6 4 NE 1020,9 0,0
25.09.2018 03:00:00 19,8 11,8 2 1 7 4 NNW 1021,3 0,0
25.09.2018 02:00:00 20,5 12,4 0 0 5 3 ENE 1021,2 -
25.09.2018 01:00:00 21,3 13,0 0 0 3 2 N 1021,1 0,0
25.09.2018 00:00:00 21,7 13,4 1 1 4 2 WNW 1021,4 0,0
24.09.2018 23:00:00 22,7 13,2 1 0 7 4 E 1021,0 0,0
24.09.2018 22:00:00 23,8 11,8 2 1 6 3 NNE 1020,4 0,0
24.09.2018 21:00:00 24,5 12,1 3 2 14 7 SSW 1019,6 0,0
24.09.2018 20:00:00 25,5 9,7 6 3 16 9 SSW 1019,0 -
24.09.2018 19:00:00 28,0 9,3 9 5 20 11 WSW 1018,1 0,0
24.09.2018 18:00:00 29,2 7,7 11 6 24 13 WSW 1017,6 0,0
24.09.2018 17:00:00 30,2 5,5 11 6 26 14 W 1017,7 0,0
24.09.2018 16:00:00 31,3 6,4 11 6 27 14 WSW 1017,6 0,0
24.09.2018 15:00:00 32,8 7,6 11 6 21 12 WSW 1018,1 0,0
24.09.2018 14:00:00 34,5 7,6 2 1 12 7 WSW 1019,2 -
24.09.2018 13:00:00 32,7 8,3 4 2 12 6 SW 1020,1 0,0
24.09.2018 12:00:00 30,9 8,5 3 2 13 7 SE 1020,6 0,0
24.09.2018 11:00:00 29,9 9,9 2 1 8 4 E 1020,3 0,0
24.09.2018 10:00:00 25,5 10,9 0 0 0 0 N 1020,1 0,0
24.09.2018 09:00:00 21,7 11,7 0 0 0 0 N 1020,7 0,0
24.09.2018 08:00:00 18,6 12,1 0 0 0 0 N 1020,8 -
24.09.2018 07:00:00 19,3 11,3 0 0 0 0 N 1020,5 0,0
24.09.2018 06:00:00 18,9 12,2 0 0 0 0 N 1020,6 0,0
24.09.2018 05:00:00 19,6 13,1 0 0 0 0 N 1020,5 0,0
24.09.2018 04:00:00 20,2 13,2 0 0 0 0 N 1020,6 0,0
24.09.2018 03:00:00 20,3 12,7 0 0 0 0 N 1020,8 0,0
24.09.2018 02:00:00 21,0 12,4 0 0 0 0 N 1021,1 -
24.09.2018 01:00:00 21,5 12,3 0 0 0 0 N 1021,0 0,0
24.09.2018 00:00:00 22,2 11,0 0 0 0 0 N 1021,4 0,0
23.09.2018 23:00:00 22,7 11,4 0 0 0 0 N 1021,3 0,0
23.09.2018 22:00:00 24,1 10,4 0 0 0 0 N 1021,0 0,0
23.09.2018 21:00:00 25,1 8,1 0 0 3 2 N 1020,7 0,0
23.09.2018 20:00:00 26,2 7,7 1 1 16 8 SW 1020,3 -
23.09.2018 19:00:00 27,8 8,7 10 5 18 10 SW 1019,8 0,0
23.09.2018 18:00:00 28,9 8,0 10 5 21 11 SSW 1019,5 0,0
23.09.2018 17:00:00 29,6 8,7 11 6 23 12 SSW 1019,6 0,0
23.09.2018 16:00:00 29,6 5,6 14 7 25 13 SSW 1019,8 0,0
23.09.2018 15:00:00 31,0 3,0 6 3 20 11 SSE 1020,4 0,0
23.09.2018 14:00:00 29,9 6,5 12 7 23 12 SSW 1020,9 -
23.09.2018 13:00:00 31,4 5,8 5 3 16 9 SW 1021,4 0,0
23.09.2018 12:00:00 31,1 5,5 3 2 9 5 E 1022,0 0,0
23.09.2018 11:00:00 28,4 5,9 2 1 5 3 ESE 1022,4 0,0
23.09.2018 10:00:00 25,5 9,7 1 0 4 2 E 1021,6 0,0
23.09.2018 09:00:00 21,0 11,0 0 0 3 2 ESE 1022,3 0,0
23.09.2018 08:00:00 17,6 10,5 1 1 5 3 N 1022,8 -
23.09.2018 07:00:00 17,7 11,4 3 2 6 3 E 1022,6 0,0
23.09.2018 06:00:00 18,1 12,5 0 0 3 2 N 1022,3 0,0
23.09.2018 05:00:00 18,5 12,0 0 0 3 2 SW 1022,3 0,0
23.09.2018 04:00:00 19,1 11,9 1 0 4 2 WNW 1022,4 0,0
23.09.2018 03:00:00 19,8 10,8 0 0 4 2 SW 1022,7 0,0
23.09.2018 02:00:00 19,9 11,1 2 1 4 2 WSW 1023,1 -
23.09.2018 01:00:00 21,1 11,7 0 0 5 3 SW 1023,0 0,0
23.09.2018 00:00:00 21,1 12,2 2 1 5 3 W 1023,0 0,0
22.09.2018 23:00:00 21,6 13,5 1 1 3 2 W 1022,9 0,0
22.09.2018 22:00:00 22,9 12,8 0 0 5 3 W 1022,6 0,0
22.09.2018 21:00:00 24,0 12,6 2 1 9 5 W 1021,8 0,0
22.09.2018 20:00:00 25,2 12,1 5 3 18 10 SSW 1021,5 -
22.09.2018 19:00:00 26,4 11,7 11 6 19 10 SW 1020,7 0,0
22.09.2018 18:00:00 27,4 12,6 12 6 23 12 SSW 1020,4 0,0
22.09.2018 17:00:00 28,6 13,3 11 6 22 12 SSW 1020,3 0,0
22.09.2018 16:00:00 28,0 14,2 15 8 24 13 SSW 1020,5 0,0
22.09.2018 15:00:00 28,4 14,6 12 6 26 14 SSW 1020,9 0,0
22.09.2018 14:00:00 28,5 15,4 12 6 20 11 SSW 1021,8 -
22.09.2018 13:00:00 29,9 12,7 3 1 10 6 ESE 1022,1 0,0
22.09.2018 12:00:00 27,7 13,9 3 1 9 5 ESE 1022,4 0,0
22.09.2018 11:00:00 25,0 15,9 3 2 9 5 E 1022,2 0,0
22.09.2018 10:00:00 23,8 17,8 2 1 5 3 SE 1021,6 0,0
22.09.2018 09:00:00 19,9 16,0 3 2 5 3 NW 1022,0 0,0
22.09.2018 08:00:00 18,9 15,0 3 2 5 3 NW 1021,9 -
22.09.2018 07:00:00 18,5 14,6 0 0 2 1 NNE 1021,4 0,0
22.09.2018 06:00:00 18,7 14,1 0 0 2 1 N 1020,9 0,0
22.09.2018 05:00:00 19,7 14,9 0 0 2 1 E 1020,4 0,0
22.09.2018 04:00:00 19,8 15,4 0 0 5 3 N 1020,3 0,0
22.09.2018 03:00:00 20,5 16,6 0 0 0 0 N 1020,3 0,0
22.09.2018 02:00:00 21,1 16,9 0 0 3 1 N 1020,3 -
22.09.2018 01:00:00 21,6 17,0 0 0 0 0 N 1020,1 0,0
22.09.2018 00:00:00 22,1 17,2 0 0 4 2 WNW 1019,8 0,0
21.09.2018 23:00:00 22,9 17,1 0 0 5 3 SW 1019,4 0,0
21.09.2018 22:00:00 23,3 16,6 1 1 10 5 ENE 1018,9 0,0
21.09.2018 21:00:00 24,2 16,5 2 1 6 4 ENE 1017,9 0,0
21.09.2018 20:00:00 25,3 14,7 3 1 10 5 SSW 1017,3 -
21.09.2018 19:00:00 27,4 13,8 5 3 17 9 SW 1016,4 0,0
21.09.2018 18:00:00 27,8 14,0 11 6 24 13 SW 1016,1 0,0
21.09.2018 17:00:00 27,5 12,7 11 6 24 13 SSW 1016,2 0,0
21.09.2018 16:00:00 28,0 14,2 14 8 23 13 SW 1016,1 0,0
21.09.2018 15:00:00 27,4 14,0 13 7 21 11 SSW 1017,0 0,0
21.09.2018 14:00:00 29,5 12,0 6 4 17 9 SW 1017,2 -
21.09.2018 13:00:00 27,3 12,5 8 4 16 9 SSW 1018,3 0,0
21.09.2018 12:00:00 26,8 10,5 3 2 11 6 S 1018,6 0,0
21.09.2018 11:00:00 24,7 10,5 3 2 6 3 SSE 1018,5 0,0
21.09.2018 10:00:00 22,6 13,1 2 1 7 4 E 1017,7 0,0
21.09.2018 09:00:00 19,3 14,1 0 0 3 2 WNW 1018,3 0,0
21.09.2018 08:00:00 17,2 13,8 0 0 4 2 NE 1018,9 -
21.09.2018 07:00:00 17,1 13,7 0 0 5 3 N 1018,3 0,0
21.09.2018 06:00:00 17,9 13,7 0 0 3 2 N 1018,0 0,0
21.09.2018 05:00:00 18,1 14,2 1 1 5 3 WSW 1018,0 0,0
21.09.2018 04:00:00 18,2 14,7 0 0 5 3 WSW 1018,4 0,0
21.09.2018 03:00:00 18,6 15,3 3 2 6 3 NW 1018,7 0,0
21.09.2018 02:00:00 19,9 16,6 0 0 5 3 N 1018,9 -
21.09.2018 01:00:00 20,5 17,1 0 0 4 2 WNW 1019,0 0,0
21.09.2018 00:00:00 21,0 17,6 0 0 5 3 W 1019,0 0,0
20.09.2018 23:00:00 21,2 17,8 1 1 6 3 W 1019,0 0,0
20.09.2018 22:00:00 22,0 18,2 0 0 12 6 WSW 1018,6 0,0
20.09.2018 21:00:00 22,3 18,3 5 3 14 8 SW 1018,0 0,0
20.09.2018 20:00:00 23,3 18,2 7 4 21 11 SSW 1017,7 -
20.09.2018 19:00:00 24,8 17,3 11 6 21 12 SSW 1017,4 0,0
20.09.2018 18:00:00 26,3 16,0 13 7 23 12 SW 1017,1 0,0
20.09.2018 17:00:00 27,1 15,8 13 7 27 15 SSW 1017,4 0,0

tt = temperature
td = dewpoint
ff = wind speed
fx = gusts
dd = wind direction
ppp = reduced air pressure
rr = precipitation

Next stations